Larkspur, CA

10:38 PM PDT on September 20, 2014 (GMT -0700)
Murray Park | Change Station
CLOSE
Current Station
Personal Weather Station
Location: Larkspur, CA
Elevation: 79 ft
Nearby Weather Stations

Elev 79 ft 37.94 °N, 122.55 °W | Updated 2 minutes ago

Partly Cloudy
Partly Cloudy
60.2 °F
Feels Like 60.2 °F
N
0.0
Wind Variable Wind from ESE
Gusts 0.0 mph

Today
High -- | Low -- °F
--% Chance of Precip.
Yesterday
High -- | Low -- °F
Precip. -- in
6:56 AM 7:10 PM
Waning Crescent, 8% visible
Pressure 29.97 in
Visibility 10.0 miles
Clouds Overcast 1200 ft
Dew Point 57 °F
Humidity 88%
Rainfall 0.00 in
Snow Depth 1 in , 1 in , 0 in
UV 0 out of 12
Pollen 4.00 out of 12
Ozone Good
Flu Activity Not available.
METAR KO69 210515Z AUTO 29009KT 10SM OVC012 17/15 A2997 RMK AO1

More Conditions Fewer Conditions

Pressure 29.97 in
Visibility 10.0 miles
Clouds Overcast 1200 ft
Dew Point 57 °F
Humidity 88%
Rainfall 0.00 in
Snow Depth 1 in , 1 in , 0 in
UV 0 out of 12
Pollen 4.00 out of 12
Ozone Good
Flu Activity Not available.
METAR KO69 210515Z AUTO 29009KT 10SM OVC012 17/15 A2997 RMK AO1

More Conditions Fewer Conditions

10-Day Weather Forecast

Almanac

Astronomy

Sep. 20, 2014 Rise Set
Actual Time 6:56 AM PDT 7:10 PM PDT
Civil Twilight 6:30 AM PDT 7:36 PM PDT
Nautical Twilight 5:59 AM PDT 8:07 PM PDT
Astronomical Twilight 5:27 AM PDT 8:38 PM PDT
Moon 3:43 AM PDT (9/20) 5:14 PM PDT (9/20)
Length of Visible Light 13h 06m
Length of Day
12h 13m
Tomorrow will be 2m 25s shorter.
Waning Crescent, 8% of the Moon is Illuminated
Sep 21
Waning Crescent
Sep 24
New
Oct 1
First Quarter
Oct 8
Full
Oct 15
Last Quarter

Yesterday's Extremes

State Highs State Lows

Community

WunderPhotos

Upload Photos

1,755,090 photos uploaded!

Nearby

Air Quality

  Air Quality AQ Index Pollutant
Yesterday Good
OZONE
Current Good
OZONE
Saturday Moderate
PM2.5
Sunday Moderate
PM2.5
Monday Moderate
PM2.5
Tuesday Moderate
PM2.5
Wednesday Good
PM2.5
Thursday Good
OZONE

Snow Depth

Station Depth Elevation
Summit Meadow 1 in 9122 ft
Leavitt Meadows 1 in 7200 ft
Forestdale Creek 0 in 8029 ft
Monitor Pass 1 in 8350 ft
Leavitt Lake 0 in 9400 ft

Earthquake Activity

City Distance Mag. Time & Date
Cloverdale, California 64 miles 2.5 9:15 PM PDT
2014-09-20
Livermore, California 47 miles 2.6 3:37 AM PDT
2014-09-19
The Geysers, California 57 miles 2.5 11:29 PM PDT
2014-09-17
Minimum magnitude displayed is 2.5.

Coastal Water Temperatures

Place Temperature
San Francisco, CA 64.9 °F
Richmond, CA 66.9 °F
Port Chicago, CA 70.0 °F

Nearby Weather Stations